createdAt,value
2023-02-16T00:01:27.416Z,28.63
2023-02-16T00:04:00.942Z,25.27
2023-02-16T00:06:32.459Z,24.73
2023-02-16T00:09:02.722Z,25.13
2023-02-16T00:11:50.522Z,25.67
2023-02-16T00:14:23.405Z,28.53
2023-02-16T00:16:53.740Z,24.40
2023-02-16T00:19:29.188Z,21.93
2023-02-16T00:22:02.256Z,25.43
2023-02-16T00:24:33.739Z,31.83
2023-02-16T00:27:04.393Z,29.03
2023-02-16T00:29:39.195Z,27.10
2023-02-16T00:32:09.519Z,25.43
2023-02-16T00:34:45.138Z,26.40
2023-02-16T00:37:17.213Z,28.83
2023-02-16T00:39:48.383Z,24.13
2023-02-16T00:42:24.099Z,24.43
2023-02-16T00:44:57.308Z,26.50
2023-02-16T00:47:35.095Z,25.17
2023-02-16T00:50:19.943Z,27.70
2023-02-16T00:52:51.020Z,25.63
2023-02-16T00:55:24.398Z,28.40
2023-02-16T00:57:59.125Z,26.73
2023-02-16T01:00:34.470Z,26.67
2023-02-16T01:03:11.855Z,28.90
2023-02-16T01:05:45.351Z,29.73
2023-02-16T01:08:32.577Z,28.40
2023-02-16T01:11:11.031Z,31.57
2023-02-16T01:13:50.219Z,27.80
2023-02-16T01:16:25.096Z,24.97
2023-02-16T01:18:56.634Z,29.00
2023-02-16T01:21:30.687Z,27.97
2023-02-16T01:24:00.829Z,27.43
2023-02-16T01:26:32.640Z,27.27
2023-02-16T01:29:02.772Z,33.30
2023-02-16T01:31:34.257Z,29.07
2023-02-16T01:34:04.492Z,31.20
2023-02-16T01:36:41.641Z,25.17
2023-02-16T01:39:17.513Z,27.77
2023-02-16T01:42:33.341Z,28.43
2023-02-16T01:45:11.729Z,31.07
2023-02-16T01:47:54.128Z,27.37
2023-02-16T01:50:27.259Z,25.53
2023-02-16T01:53:07.296Z,25.27
2023-02-16T01:55:46.218Z,27.00
2023-02-16T01:58:28.058Z,28.27
2023-02-16T02:01:39.805Z,25.80
2023-02-16T02:05:02.427Z,26.90
2023-02-16T02:07:44.545Z,26.33
2023-02-16T02:10:24.447Z,28.40
2023-02-16T02:13:06.361Z,28.13
2023-02-16T02:15:37.736Z,27.67
2023-02-16T02:18:08.038Z,30.73
2023-02-16T02:21:12.768Z,25.43
2023-02-16T02:24:10.666Z,28.30
2023-02-16T02:27:25.812Z,28.00
2023-02-16T02:30:37.944Z,29.50
2023-02-16T02:33:41.059Z,28.03
2023-02-16T02:36:25.206Z,30.00
2023-02-16T02:39:11.884Z,29.10
2023-02-16T02:42:08.502Z,29.33
2023-02-16T02:44:49.902Z,30.00
2023-02-16T02:47:20.330Z,32.10
2023-02-16T02:49:56.302Z,27.33
2023-02-16T02:52:26.903Z,28.60
2023-02-16T02:55:09.486Z,30.87
2023-02-16T02:57:57.673Z,31.40
2023-02-16T03:00:47.882Z,30.93
2023-02-16T03:03:32.989Z,29.73
2023-02-16T03:06:10.791Z,29.47
2023-02-16T03:08:47.653Z,28.03
2023-02-16T03:11:36.988Z,31.43
2023-02-16T03:14:17.794Z,28.00
2023-02-16T03:17:08.040Z,26.97
2023-02-16T03:19:50.627Z,30.83
2023-02-16T03:22:33.249Z,29.70
2023-02-16T03:25:15.803Z,30.03
2023-02-16T03:27:59.074Z,29.00
2023-02-16T03:30:30.905Z,31.23
2023-02-16T03:33:03.957Z,30.03
2023-02-16T03:35:35.024Z,30.10
2023-02-16T03:38:05.586Z,32.07
2023-02-16T03:40:41.007Z,28.60
2023-02-16T03:43:13.848Z,31.60
2023-02-16T03:45:47.820Z,29.90
2023-02-16T03:48:21.173Z,28.90
2023-02-16T03:50:51.310Z,29.90
2023-02-16T03:53:21.463Z,32.90
2023-02-16T03:55:52.389Z,31.03
2023-02-16T03:58:25.464Z,29.20
2023-02-16T04:00:56.006Z,28.67
2023-02-16T04:03:29.113Z,32.17
2023-02-16T04:05:59.273Z,28.87
2023-02-16T04:08:29.853Z,31.97
2023-02-16T04:11:00.449Z,31.87
2023-02-16T04:13:28.046Z,33.17
2023-02-16T04:15:58.094Z,33.00
2023-02-16T04:18:33.193Z,28.77
2023-02-16T04:21:03.566Z,29.70
2023-02-16T04:23:33.820Z,36.43
2023-02-16T04:26:03.910Z,30.70
2023-02-16T04:28:34.083Z,32.33
2023-02-16T04:31:04.578Z,29.57
2023-02-16T04:33:37.493Z,29.73
2023-02-16T04:36:08.816Z,28.90
2023-02-16T04:38:38.933Z,31.77
2023-02-16T04:41:09.170Z,30.23
2023-02-16T04:43:39.530Z,29.53
2023-02-16T04:46:12.063Z,32.33
2023-02-16T04:48:44.787Z,31.03
2023-02-16T04:51:14.860Z,31.20
2023-02-16T04:53:45.072Z,31.33
2023-02-16T04:56:17.184Z,32.90
2023-02-16T04:58:47.315Z,29.93
2023-02-16T05:01:25.601Z,32.57
2023-02-16T05:03:58.778Z,34.07
2023-02-16T05:06:28.980Z,31.50
2023-02-16T05:08:59.159Z,30.13
2023-02-16T05:11:41.663Z,31.67
2023-02-16T05:14:33.998Z,30.40
2023-02-16T05:17:04.244Z,33.43
2023-02-16T05:19:37.217Z,31.27
2023-02-16T05:22:07.847Z,31.53
2023-02-16T05:24:38.586Z,29.13
2023-02-16T05:27:11.650Z,31.90
2023-02-16T05:29:44.539Z,31.47
2023-02-16T05:32:14.914Z,33.87
2023-02-16T05:34:47.721Z,31.20
2023-02-16T05:37:20.540Z,29.43
2023-02-16T05:39:50.631Z,32.23
2023-02-16T05:42:20.720Z,32.63
2023-02-16T05:44:50.951Z,35.70
2023-02-16T05:47:21.304Z,35.43
2023-02-16T05:49:54.042Z,31.37
2023-02-16T05:52:24.432Z,35.80
2023-02-16T05:54:57.178Z,32.97
2023-02-16T05:57:27.282Z,35.83
2023-02-16T05:59:57.456Z,32.90
2023-02-16T06:02:27.619Z,35.17
2023-02-16T06:05:01.607Z,33.20
2023-02-16T06:07:31.734Z,30.97
2023-02-16T06:10:01.916Z,33.67
2023-02-16T06:12:32.393Z,35.67
2023-02-16T06:15:02.845Z,33.40
2023-02-16T06:17:32.895Z,32.73
2023-02-16T06:20:08.614Z,33.63
2023-02-16T06:22:38.676Z,32.00
2023-02-16T06:25:09.728Z,35.13
2023-02-16T06:27:39.838Z,33.83
2023-02-16T06:30:13.734Z,31.50
2023-02-16T06:32:43.906Z,32.60
2023-02-16T06:35:16.641Z,30.10
2023-02-16T06:37:46.911Z,33.07
2023-02-16T06:40:19.260Z,30.30
2023-02-16T06:42:49.370Z,30.50
2023-02-16T06:45:20.967Z,32.60
2023-02-16T06:47:51.017Z,29.17
2023-02-16T06:50:24.066Z,36.07
2023-02-16T06:52:54.122Z,32.57
2023-02-16T06:55:24.387Z,30.90
2023-02-16T06:57:54.479Z,31.00
2023-02-16T07:00:25.134Z,30.63
2023-02-16T07:02:58.882Z,28.53
2023-02-16T07:05:31.747Z,32.93
2023-02-16T07:08:01.946Z,30.47
2023-02-16T07:10:47.457Z,32.17
2023-02-16T07:13:19.146Z,31.10
2023-02-16T07:15:50.454Z,29.23
2023-02-16T07:18:20.749Z,31.03
2023-02-16T07:20:53.729Z,25.90
2023-02-16T07:23:26.361Z,28.20
2023-02-16T07:25:56.520Z,27.53
2023-02-16T07:28:26.665Z,28.07
2023-02-16T07:30:56.924Z,29.40
2023-02-16T07:33:27.268Z,28.67
2023-02-16T07:35:59.938Z,28.03
2023-02-16T07:38:31.306Z,26.13
2023-02-16T07:41:02.253Z,27.17
2023-02-16T07:43:32.796Z,27.10
2023-02-16T07:46:03.042Z,26.93
2023-02-16T07:48:33.127Z,27.43
2023-02-16T07:51:06.628Z,28.43
2023-02-16T07:53:39.099Z,31.00
2023-02-16T07:56:09.751Z,28.33
2023-02-16T07:58:39.940Z,31.27
2023-02-16T08:01:15.768Z,26.17
2023-02-16T08:03:48.774Z,29.03
2023-02-16T08:06:22.826Z,28.70
2023-02-16T08:08:53.275Z,26.03
2023-02-16T08:11:27.004Z,26.53
2023-02-16T08:13:57.308Z,32.20
2023-02-16T08:16:31.087Z,24.90
2023-02-16T08:19:03.736Z,26.27
2023-02-16T08:21:37.735Z,28.90
2023-02-16T08:24:14.936Z,28.53
2023-02-16T08:26:49.801Z,24.10
2023-02-16T08:29:20.648Z,28.33
2023-02-16T08:31:51.750Z,32.60
2023-02-16T08:34:26.429Z,26.63
2023-02-16T08:37:01.389Z,23.70
2023-02-16T08:39:35.366Z,26.70
2023-02-16T08:42:05.684Z,29.70
2023-02-16T08:44:35.854Z,26.13
2023-02-16T08:47:06.046Z,24.63
2023-02-16T08:49:36.086Z,26.90
2023-02-16T08:52:12.860Z,26.40
2023-02-16T08:54:42.989Z,31.73
2023-02-16T08:57:13.530Z,25.37
2023-02-16T08:59:43.652Z,23.50
2023-02-16T09:02:18.192Z,26.83
2023-02-16T09:04:48.924Z,25.60
2023-02-16T09:07:22.366Z,25.17
2023-02-16T09:10:02.804Z,27.20
2023-02-16T09:12:35.358Z,27.63
2023-02-16T09:15:05.887Z,25.57
2023-02-16T09:17:36.179Z,26.45
2023-02-16T09:20:07.086Z,27.45
2023-02-16T09:22:39.752Z,27.85
2023-02-16T09:25:11.452Z,39.65
2023-02-16T09:27:41.710Z,25.80
2023-02-16T09:30:13.533Z,27.40
2023-02-16T09:32:43.676Z,24.10
2023-02-16T09:35:14.258Z,22.92
2023-02-16T09:37:47.036Z,23.42
2023-02-16T09:40:18.060Z,24.33
2023-02-16T09:43:11.174Z,27.27
2023-02-16T09:45:50.529Z,26.10
2023-02-16T09:48:31.007Z,23.15
2023-02-16T09:51:04.343Z,22.83
2023-02-16T09:53:42.860Z,20.40
2023-02-16T09:56:25.361Z,22.42
2023-02-16T09:59:05.465Z,20.63
2023-02-16T10:01:47.330Z,20.33
2023-02-16T10:04:39.543Z,22.67
2023-02-16T10:07:26.892Z,23.73
2023-02-16T10:10:04.040Z,22.50
2023-02-16T10:12:41.280Z,23.48
2023-02-16T10:15:20.512Z,21.30
2023-02-16T10:17:58.879Z,24.10
2023-02-16T10:20:36.887Z,23.00
2023-02-16T10:23:23.662Z,21.42
2023-02-16T10:26:05.244Z,24.38
2023-02-16T10:28:48.206Z,20.13
2023-02-16T10:31:31.702Z,26.85
2023-02-16T10:34:22.927Z,20.30
2023-02-16T10:37:18.948Z,22.35
2023-02-16T10:40:00.698Z,19.95
2023-02-16T10:42:42.008Z,22.45
2023-02-16T10:45:27.489Z,20.27
2023-02-16T10:47:57.687Z,23.13
2023-02-16T10:50:34.475Z,20.05
2023-02-16T10:53:16.443Z,23.70
2023-02-16T10:55:46.973Z,22.08
2023-02-16T10:58:29.429Z,21.63
2023-02-16T11:01:09.022Z,17.55
2023-02-16T11:03:49.071Z,20.67
2023-02-16T11:06:25.504Z,19.48
2023-02-16T11:09:00.944Z,20.48
2023-02-16T11:11:33.839Z,20.08
2023-02-16T11:14:09.558Z,20.05
2023-02-16T11:16:39.866Z,22.58
2023-02-16T11:19:26.331Z,21.00
2023-02-16T11:21:59.358Z,20.15
2023-02-16T11:24:33.689Z,20.92
2023-02-16T11:27:10.400Z,19.45
2023-02-16T11:29:43.693Z,19.75
2023-02-16T11:32:16.945Z,18.63
2023-02-16T11:34:51.669Z,20.02
2023-02-16T11:37:31.546Z,17.98
2023-02-16T11:40:07.395Z,20.63
2023-02-16T11:42:43.991Z,20.65
2023-02-16T11:45:33.573Z,17.63
2023-02-16T11:48:08.023Z,23.17
2023-02-16T11:50:41.934Z,21.38
2023-02-16T11:53:27.052Z,19.98
2023-02-16T11:56:19.366Z,19.23
2023-02-16T11:59:16.129Z,22.73
2023-02-16T12:02:41.639Z,18.17
2023-02-16T12:05:29.941Z,21.55
2023-02-16T12:08:36.168Z,13.98
2023-02-16T12:11:28.253Z,16.70
2023-02-16T12:14:37.124Z,15.85
2023-02-16T12:17:35.802Z,17.45
2023-02-16T12:20:25.070Z,14.88
2023-02-16T12:23:13.778Z,15.27
2023-02-16T12:25:53.890Z,14.15
2023-02-16T12:28:39.245Z,16.67
2023-02-16T12:31:25.010Z,18.50
2023-02-16T12:34:15.386Z,14.85
2023-02-16T12:36:59.771Z,16.33
2023-02-16T12:39:41.452Z,15.07
2023-02-16T12:42:54.937Z,13.95
2023-02-16T12:45:30.657Z,15.43
2023-02-16T12:48:11.294Z,17.08
2023-02-16T12:50:47.896Z,16.92
2023-02-16T12:53:28.152Z,16.13
2023-02-16T12:56:03.770Z,12.93
2023-02-16T12:58:40.371Z,16.52
2023-02-16T13:01:19.463Z,16.40
2023-02-16T13:03:56.721Z,16.38
2023-02-16T13:06:37.974Z,15.00
2023-02-16T13:09:23.704Z,16.38
2023-02-16T13:12:02.405Z,18.17
2023-02-16T13:14:38.073Z,18.90
2023-02-16T13:17:18.842Z,19.48
2023-02-16T13:19:51.971Z,17.58
2023-02-16T13:23:13.203Z,15.50
2023-02-16T13:26:13.096Z,17.90
2023-02-16T13:29:45.246Z,16.77
2023-02-16T13:32:53.069Z,17.80
2023-02-16T13:35:44.701Z,17.52
2023-02-16T13:39:08.695Z,20.05
2023-02-16T13:42:21.805Z,18.92
2023-02-16T13:44:56.289Z,21.92
2023-02-16T13:47:34.360Z,25.92
2023-02-16T13:50:11.110Z,16.52
2023-02-16T13:52:45.212Z,18.42
2023-02-16T13:55:31.627Z,19.45
2023-02-16T13:58:32.473Z,17.77
2023-02-16T14:01:38.907Z,17.08
2023-02-16T14:04:42.727Z,19.27
2023-02-16T14:07:39.753Z,17.50
2023-02-16T14:10:16.587Z,17.98
2023-02-16T14:12:50.065Z,16.25
2023-02-16T14:15:23.356Z,16.48
2023-02-16T14:17:56.466Z,16.02
2023-02-16T14:20:32.996Z,16.83
2023-02-16T14:23:03.190Z,15.48
2023-02-16T14:25:43.210Z,15.70
2023-02-16T14:29:07.730Z,15.00
2023-02-16T14:31:49.134Z,13.95
2023-02-16T14:34:27.602Z,15.27
2023-02-16T14:37:30.493Z,11.85
2023-02-16T14:40:22.591Z,13.75
2023-02-16T14:43:04.914Z,15.57
2023-02-16T14:46:19.429Z,11.20
2023-02-16T14:49:30.842Z,11.38
2023-02-16T14:52:46.786Z,10.90
2023-02-16T14:55:54.508Z,12.30
2023-02-16T14:58:37.655Z,9.30
2023-02-16T15:01:16.383Z,7.78
2023-02-16T15:03:50.433Z,12.00
2023-02-16T15:06:34.783Z,12.52
2023-02-16T15:09:16.033Z,8.02
2023-02-16T15:12:06.534Z,8.52
2023-02-16T15:14:45.178Z,10.63
2023-02-16T15:17:35.644Z,9.80
2023-02-16T15:20:14.976Z,10.70
2023-02-16T15:22:53.670Z,11.30
2023-02-16T15:25:29.315Z,10.27
2023-02-16T15:28:04.352Z,11.25
2023-02-16T15:30:37.317Z,9.25
2023-02-16T15:33:10.280Z,11.55
2023-02-16T15:35:47.890Z,11.98
2023-02-16T15:38:31.718Z,11.75
2023-02-16T15:41:04.582Z,10.38
2023-02-16T15:43:39.985Z,18.00
2023-02-16T15:46:26.649Z,14.70
2023-02-16T15:48:57.116Z,10.73
2023-02-16T15:51:34.075Z,12.80
2023-02-16T15:54:16.020Z,11.07
2023-02-16T15:56:52.074Z,11.95
2023-02-16T15:59:35.730Z,12.63
2023-02-16T16:02:16.893Z,12.55
2023-02-16T16:04:50.241Z,12.45
2023-02-16T16:07:25.918Z,14.07
2023-02-16T16:10:03.384Z,12.82
2023-02-16T16:12:34.157Z,14.32
2023-02-16T16:15:06.938Z,12.95
2023-02-16T16:17:41.550Z,12.88
2023-02-16T16:20:31.044Z,11.45
2023-02-16T16:23:05.550Z,11.20
2023-02-16T16:25:46.511Z,13.15
2023-02-16T16:28:38.010Z,13.65
2023-02-16T16:31:15.856Z,14.82
2023-02-16T16:34:00.658Z,15.88
2023-02-16T16:36:36.905Z,17.40
2023-02-16T16:39:33.762Z,11.67
2023-02-16T16:42:22.601Z,12.70
2023-02-16T16:45:07.039Z,12.77
2023-02-16T16:47:43.000Z,12.27
2023-02-16T16:50:38.313Z,13.90
2023-02-16T16:53:55.188Z,14.05
2023-02-16T16:56:26.786Z,13.93
2023-02-16T16:59:02.393Z,12.85
2023-02-16T17:01:33.645Z,15.88
2023-02-16T17:04:04.615Z,12.57
2023-02-16T17:06:34.738Z,15.68
2023-02-16T17:09:05.788Z,11.23
2023-02-16T17:11:38.548Z,11.13
2023-02-16T17:14:18.325Z,14.80
2023-02-16T17:16:59.663Z,15.13
2023-02-16T17:19:31.006Z,15.77
2023-02-16T17:22:01.109Z,12.57
2023-02-16T17:24:31.668Z,12.02
2023-02-16T17:27:01.700Z,12.25
2023-02-16T17:29:35.440Z,15.60
2023-02-16T17:32:06.541Z,12.07
2023-02-16T17:34:36.808Z,13.00
2023-02-16T17:37:10.128Z,13.27
2023-02-16T17:39:40.292Z,14.43
2023-02-16T17:42:15.249Z,16.42
2023-02-16T17:44:48.273Z,15.03
2023-02-16T17:47:19.829Z,14.70
2023-02-16T17:49:50.013Z,15.00
2023-02-16T17:52:20.078Z,13.60
2023-02-16T17:54:50.290Z,14.93
2023-02-16T17:57:22.956Z,19.40
2023-02-16T17:59:55.648Z,13.10
2023-02-16T18:02:25.737Z,15.52
2023-02-16T18:04:56.201Z,16.80
2023-02-16T18:07:26.555Z,14.65
2023-02-16T18:09:57.807Z,15.20
2023-02-16T18:12:30.370Z,16.73
2023-02-16T18:15:04.201Z,14.18
2023-02-16T18:17:34.295Z,17.60
2023-02-16T18:20:05.053Z,13.83
2023-02-16T18:22:35.147Z,13.07
2023-02-16T18:25:05.314Z,19.27
2023-02-16T18:27:35.517Z,14.57
2023-02-16T18:30:13.149Z,17.38
2023-02-16T18:32:45.040Z,13.77
2023-02-16T18:35:15.882Z,13.90
2023-02-16T18:37:54.404Z,15.60
2023-02-16T18:40:24.749Z,14.00
2023-02-16T18:42:56.703Z,13.90
2023-02-16T18:45:29.468Z,14.13
2023-02-16T18:47:59.629Z,16.17
2023-02-16T18:50:29.851Z,14.23
2023-02-16T18:53:00.100Z,16.03
2023-02-16T18:55:33.093Z,14.27
2023-02-16T18:58:03.340Z,14.77
2023-02-16T19:00:36.219Z,12.67
2023-02-16T19:03:06.747Z,15.13
2023-02-16T19:05:37.547Z,14.03
2023-02-16T19:08:08.427Z,18.03
2023-02-16T19:10:38.669Z,15.73
2023-02-16T19:13:08.766Z,16.03
2023-02-16T19:15:41.522Z,16.97
2023-02-16T19:18:11.599Z,15.87
2023-02-16T19:20:41.692Z,15.77
2023-02-16T19:23:11.763Z,14.77
2023-02-16T19:25:41.900Z,15.00
2023-02-16T19:28:12.053Z,13.00
2023-02-16T19:30:44.803Z,14.43
2023-02-16T19:33:14.935Z,13.27
2023-02-16T19:35:45.049Z,12.07
2023-02-16T19:38:16.900Z,13.23
2023-02-16T19:40:47.108Z,12.70
2023-02-16T19:43:17.182Z,13.80
2023-02-16T19:45:50.043Z,13.55
2023-02-16T19:48:21.597Z,12.50
2023-02-16T19:50:51.710Z,12.07
2023-02-16T19:53:21.822Z,14.17
2023-02-16T19:55:52.412Z,9.83
2023-02-16T19:58:22.962Z,11.70
2023-02-16T20:00:55.933Z,10.35
2023-02-16T20:03:26.049Z,12.88
2023-02-16T20:05:56.161Z,11.80
2023-02-16T20:08:26.286Z,16.73
2023-02-16T20:10:56.376Z,10.53
2023-02-16T20:13:27.762Z,11.03
2023-02-16T20:16:05.072Z,10.88
2023-02-16T20:18:37.329Z,11.90
2023-02-16T20:21:10.473Z,12.30
2023-02-16T20:23:41.168Z,12.75
2023-02-16T20:26:17.845Z,11.60
2023-02-16T20:28:48.824Z,11.37
2023-02-16T20:31:28.891Z,12.98
2023-02-16T20:33:59.881Z,12.97
2023-02-16T20:36:31.687Z,13.90
2023-02-16T20:39:01.807Z,12.80
2023-02-16T20:41:31.951Z,18.00
2023-02-16T20:44:02.940Z,14.40
2023-02-16T20:46:36.254Z,13.77
2023-02-16T20:49:07.586Z,17.30
2023-02-16T20:51:41.236Z,14.63
2023-02-16T20:54:11.525Z,20.45
2023-02-16T20:56:41.858Z,18.05
2023-02-16T20:59:14.189Z,20.77
2023-02-16T21:01:51.952Z,12.73
2023-02-16T21:04:22.804Z,14.23
2023-02-16T21:06:52.911Z,12.03
2023-02-16T21:09:25.346Z,11.52
2023-02-16T21:11:55.415Z,14.38
2023-02-16T21:14:26.704Z,11.75
2023-02-16T21:17:00.103Z,16.80
2023-02-16T21:19:30.258Z,12.00
2023-02-16T21:22:00.347Z,10.47
2023-02-16T21:24:30.565Z,11.57
2023-02-16T21:27:00.667Z,8.75
2023-02-16T21:29:30.914Z,11.32
2023-02-16T21:32:04.073Z,9.00
2023-02-16T21:34:34.413Z,9.55
2023-02-16T21:37:04.516Z,9.13
2023-02-16T21:39:48.133Z,10.13
2023-02-16T21:42:18.441Z,10.57
2023-02-16T21:45:09.733Z,8.68
2023-02-16T21:47:57.405Z,9.60
2023-02-16T21:50:27.819Z,8.43
2023-02-16T21:52:59.804Z,11.27
2023-02-16T21:55:44.754Z,10.03
2023-02-16T21:58:15.120Z,10.63
2023-02-16T22:00:47.279Z,10.35
2023-02-16T22:03:20.483Z,12.90
2023-02-16T22:05:50.803Z,11.23
2023-02-16T22:08:21.405Z,12.07
2023-02-16T22:10:51.469Z,12.00
2023-02-16T22:13:21.569Z,11.47
2023-02-16T22:15:54.308Z,10.33
2023-02-16T22:18:26.925Z,13.13
2023-02-16T22:20:57.008Z,11.60
2023-02-16T22:23:29.560Z,13.20
2023-02-16T22:25:59.800Z,11.18
2023-02-16T22:28:30.299Z,12.45
2023-02-16T22:31:00.859Z,12.93
2023-02-16T22:33:33.549Z,11.25
2023-02-16T22:36:14.269Z,13.37
2023-02-16T22:38:46.194Z,11.40
2023-02-16T22:41:16.316Z,13.32
2023-02-16T22:43:46.411Z,14.98
2023-02-16T22:46:19.314Z,11.48
2023-02-16T22:48:55.118Z,11.65
2023-02-16T22:51:26.850Z,11.82
2023-02-16T22:53:57.018Z,12.15
2023-02-16T22:56:27.175Z,11.73
2023-02-16T22:58:58.409Z,10.57
2023-02-16T23:01:32.915Z,11.65
2023-02-16T23:04:05.837Z,10.53
2023-02-16T23:06:39.781Z,11.80
2023-02-16T23:09:16.585Z,10.13
2023-02-16T23:11:47.285Z,10.63
2023-02-16T23:14:21.223Z,9.68
2023-02-16T23:16:54.958Z,11.03
2023-02-16T23:19:29.791Z,12.00
2023-02-16T23:22:01.381Z,11.27
2023-02-16T23:24:31.472Z,11.70
2023-02-16T23:27:02.001Z,10.20
2023-02-16T23:29:32.353Z,12.68
2023-02-16T23:32:02.501Z,12.05
2023-02-16T23:34:35.222Z,13.23
2023-02-16T23:37:05.514Z,11.23
2023-02-16T23:39:35.579Z,10.70
2023-02-16T23:42:05.698Z,11.25
2023-02-16T23:44:36.007Z,10.23
2023-02-16T23:47:06.245Z,11.48
2023-02-16T23:49:38.976Z,10.82
2023-02-16T23:52:09.071Z,10.82
2023-02-16T23:54:40.343Z,9.18
2023-02-16T23:57:14.144Z,12.45
2023-02-16T23:59:44.481Z,11.90
